Argent Gerbera — V7UC4 — position and weather

sailwx.info

Track history (hours):
 
Tides and Currents Weather Stations Pressure Air Temp Water Temp Dewpoint Dewpoint Depression Visibility Wind Speed Wind Dir Waves Ship Positions

Argent Gerbera

Last reported at 2015-Jan-27 07:18 UTC. Time now 2015-Jan-27 08:26 UTC.
Position N 29°47' E 122°05'.

Length 175 m; draft 6.3 m.

Type: Ship (hazmat cat B). MMSI: 538003929.

Date/timePositionNaut miles runAvg speedWind from/ knotsBaromVisibWave heightAir tempDewpointWater temp
2015-Jan-27 07:18N 29°47' E 122°05'0 0.0
2015-Jan-27 06:06N 29°47' E 122°05'0 0.0
2015-Jan-27 05:24N 29°47' E 122°05'0 0.0
2015-Jan-27 02:06N 29°47' E 122°05'0 0.0
2015-Jan-27 01:12N 29°47' E 122°05'0 0.0
2015-Jan-27 00:18N 29°47' E 122°05'0 0.0
2015-Jan-26 22:12N 29°47' E 122°05'0 0.0
2015-Jan-26 20:18N 29°47' E 122°05'0 0.0
2015-Jan-26 19:30N 29°47' E 122°05'0 0.0
2015-Jan-26 18:24N 29°47' E 122°05'0 0.0
2015-Jan-26 17:18N 29°47' E 122°05'0 0.0
2015-Jan-26 16:24N 29°47' E 122°05'0 0.0
2015-Jan-26 15:30N 29°47' E 122°05'0 0.0
2015-Jan-26 14:24N 29°47' E 122°05'0 0.0
2015-Jan-26 13:24N 29°47' E 122°05'0 0.0
2015-Jan-26 12:24N 29°47' E 122°05'0 0.0
2015-Jan-26 11:30N 29°47' E 122°05'0 0.0
2015-Jan-26 10:18N 29°47' E 122°05'0 0.3
2015-Jan-26 09:33N 29°47' E 122°05'1 1.0
2015-Jan-26 08:33N 29°48' E 122°06'0 0.1
2015-Jan-26 06:16N 29°48' E 122°06'3 4.2
2015-Jan-26 05:33N 29°50' E 122°09'10 9.9
2015-Jan-26 04:33N 29°45' E 122°19'4 3.7
2015-Jan-26 03:33N 29°46' E 122°23'0 0.0
2015-Jan-26 00:21N 29°46' E 122°23'0 0.1
2015-Jan-25 23:27N 29°46' E 122°23'0 0.0
2015-Jan-25 22:27N 29°46' E 122°23'0 0.0
2015-Jan-25 20:15N 29°46' E 122°23'0 0.1
2015-Jan-25 18:27N 29°46' E 122°23'0 0.1
2015-Jan-25 17:27N 29°46' E 122°23'1 1.6
2015-Jan-25 16:33N 29°45' E 122°23'1111.0
2015-Jan-25 15:33N 29°48' E 122°36'12 1.7
2015-Jan-25 08:31N 29°53' E 122°48'2 0.3
2015-Jan-25 00:32N 29°52' E 122°50'69 3.6
2015-Jan-24 05:28N 30°59' E 122°32'1212.4
2015-Jan-24 04:28N 31°02' E 122°18'910.3
2015-Jan-24 03:33N 31°03' E 122°07'1110.9
2015-Jan-24 02:33N 31°07' E 121°55'1514.6
2015-Jan-24 01:33N 31°18' E 121°43'1211.9
2015-Jan-24 00:33N 31°25' E 121°32'1111.0
2015-Jan-23 23:33N 31°32' E 121°22'4 3.3
2015-Jan-23 22:29N 31°35' E 121°20'0 0.1
2015-Jan-23 21:31N 31°35' E 121°20'0 0.0
2015-Jan-23 20:31N 31°35' E 121°20'0 0.0
2015-Jan-23 19:32N 31°35' E 121°20'0 0.0
2015-Jan-23 18:32N 31°35' E 121°20'0 0.0
2015-Jan-23 17:31N 31°35' E 121°20'0 0.3
2015-Jan-23 16:32N 31°35' E 121°20'7 7.2
2015-Jan-23 15:33N 31°39' E 121°14'1414.1
2015-Jan-23 14:33N 31°47' E 120°60'1211.7
2015-Jan-23 13:34N 31°56' E 120°52'1111.2
2015-Jan-23 12:33N 31°60' E 120°39'1212.0
2015-Jan-23 11:33N 32°03' E 120°26'1111.1
2015-Jan-23 10:33N 31°56' E 120°15'1010.0
2015-Jan-23 09:33N 31°57' E 120°04'1312.5
2015-Jan-23 08:33N 32°07' E 119°54'1413.3
2015-Jan-23 07:31N 32°19' E 119°47'14 0.3
2015-Jan-21 11:03N 32°07' E 119°55'611.6
2015-Jan-21 10:32N 32°01' E 119°57'5 4.5
2015-Jan-21 09:26N 31°58' E 120°01'0 0.0
2015-Jan-21 08:26N 31°58' E 120°01'0 0.0
2015-Jan-21 06:26N 31°58' E 120°01'0 0.0
2015-Jan-21 05:26N 31°58' E 120°01'0 0.0
2015-Jan-21 04:32N 31°58' E 120°01'0 0.0
2015-Jan-21 03:32N 31°58' E 120°01'0 0.0
2015-Jan-21 02:32N 31°58' E 120°01'0 0.0
2015-Jan-21 01:26N 31°58' E 120°01'0 0.0
2015-Jan-21 00:26N 31°58' E 120°01'0 0.0
2015-Jan-20 23:14N 31°58' E 120°01'0 0.0
2015-Jan-20 22:26N 31°58' E 120°01'0 0.0
2015-Jan-20 21:32N 31°58' E 120°01'0 0.0
2015-Jan-20 20:32N 31°58' E 120°01'0 0.0
2015-Jan-20 19:32N 31°58' E 120°01'0 0.0
2015-Jan-20 18:32N 31°58' E 120°01'0 0.0
2015-Jan-20 17:26N 31°58' E 120°01'0 0.0
2015-Jan-20 16:32N 31°58' E 120°01'0 0.0
2015-Jan-20 15:32N 31°58' E 120°01'0 0.0
2015-Jan-20 14:32N 31°58' E 120°01'0 0.0
2015-Jan-20 13:32N 31°58' E 120°01'2 1.6
2015-Jan-20 12:33N 31°58' E 120°03'3 2.8
2015-Jan-20 11:20N 31°56' E 120°07'0 0.0
2015-Jan-20 10:29N 31°56' E 120°07'0 0.0
2015-Jan-20 09:29N 31°56' E 120°07'0 0.0
2015-Jan-20 08:17N 31°56' E 120°07'0 0.0
2015-Jan-20 07:29N 31°56' E 120°07'0 0.0
2015-Jan-20 06:29N 31°56' E 120°07'0 0.0
2015-Jan-20 05:23N 31°56' E 120°07'0 0.0
2015-Jan-20 04:24N 31°56' E 120°07'0 0.0
2015-Jan-20 03:31N 31°56' E 120°07'0 0.0
2015-Jan-20 02:32N 31°56' E 120°07'0 0.0
2015-Jan-20 01:30N 31°56' E 120°07'0 0.0
2015-Jan-20 00:29N 31°56' E 120°07'0 0.0
2015-Jan-19 23:23N 31°56' E 120°07'0 0.0
2015-Jan-19 22:29N 31°56' E 120°07'0 0.0
2015-Jan-19 21:32N 31°56' E 120°07'0 0.0
2015-Jan-19 20:29N 31°56' E 120°07'0 0.0
2015-Jan-19 19:14N 31°56' E 120°07'0 0.0
2015-Jan-19 18:32N 31°56' E 120°07'0 0.0
2015-Jan-19 17:29N 31°56' E 120°07'0 0.0
2015-Jan-19 16:29N 31°56' E 120°07'0 0.0
2015-Jan-19 15:29N 31°56' E 120°07'0 0.0
2015-Jan-19 14:29N 31°56' E 120°07'1 0.3
2015-Jan-19 12:24N 31°56' E 120°06'0 0.0
2015-Jan-19 11:31N 31°56' E 120°06'0 0.0
2015-Jan-19 09:18N 31°56' E 120°06'0 0.0
2015-Jan-19 07:30N 31°56' E 120°06'0 0.0
2015-Jan-19 06:19N 31°56' E 120°06'0 0.0
2015-Jan-19 05:24N 31°56' E 120°06'0 0.0
2015-Jan-19 04:06N 31°56' E 120°06'0 0.0
2015-Jan-19 03:31N 31°56' E 120°06'0 0.0
2015-Jan-19 02:30N 31°56' E 120°06'1 1.1
2015-Jan-19 01:34N 31°57' E 120°07'1 0.7
2015-Jan-19 00:33N 31°57' E 120°08'0 0.0
2015-Jan-18 23:33N 31°57' E 120°08'0 0.0
2015-Jan-18 22:30N 31°57' E 120°08'0 0.0
2015-Jan-18 21:33N 31°57' E 120°08'0 0.2
2015-Jan-18 20:33N 31°57' E 120°08'0 0.1
2015-Jan-18 19:33N 31°57' E 120°08'0 0.1
2015-Jan-18 18:33N 31°57' E 120°08'0 0.2
2015-Jan-18 17:33N 31°57' E 120°08'0 0.0
2015-Jan-18 16:33N 31°57' E 120°08'0 0.0
2015-Jan-18 15:33N 31°57' E 120°08'0 0.1
2015-Jan-18 14:33N 31°57' E 120°08'8 7.7
2015-Jan-18 13:33N 31°57' E 120°17'9 8.7
2015-Jan-18 12:33N 31°59' E 120°27'7 7.4
2015-Jan-18 11:33N 32°00' E 120°36'1010.2
2015-Jan-18 10:33N 32°01' E 120°48'1111.0
2015-Jan-18 09:33N 31°51' E 120°54'1211.6
2015-Jan-18 08:33N 31°45' E 121°06'1111.0
2015-Jan-18 07:33N 31°38' E 121°16'1212.2
2015-Jan-18 06:33N 31°30' E 121°26'10 9.5
2015-Jan-18 05:33N 31°24' E 121°35'1111.1
2015-Jan-18 04:33N 31°18' E 121°46'1010.5
2015-Jan-18 03:33N 31°15' E 121°58'1110.9
2015-Jan-18 02:33N 31°11' E 122°10'1111.4
2015-Jan-18 01:33N 31°06' E 122°22'10 0.6
2015-Jan-17 08:08N 31°04' E 122°33'  
Track history (hours):
 
Tides and Currents Weather Stations Pressure Air Temp Water Temp Dewpoint Dewpoint Depression Visibility Wind Speed Wind Dir Waves Ship Positions

Argent Gerbera

Last reported at 2015-Jan-27 07:18 UTC. Time now 2015-Jan-27 08:26 UTC.
Position N 29°47' E 122°05'.

Length 175 m; draft 6.3 m.

Type: Ship (hazmat cat B). MMSI: 538003929.

Date/timePositionNaut miles runAvg speedWind from/ knotsBaromVisibWave heightAir tempDewpointWater temp
2015-Jan-27 07:18N 29°47' E 122°05'0 0.0
2015-Jan-27 06:06N 29°47' E 122°05'0 0.0
2015-Jan-27 05:24N 29°47' E 122°05'0 0.0
2015-Jan-27 02:06N 29°47' E 122°05'0 0.0
2015-Jan-27 01:12N 29°47' E 122°05'0 0.0
2015-Jan-27 00:18N 29°47' E 122°05'0 0.0
2015-Jan-26 22:12N 29°47' E 122°05'0 0.0
2015-Jan-26 20:18N 29°47' E 122°05'0 0.0
2015-Jan-26 19:30N 29°47' E 122°05'0 0.0
2015-Jan-26 18:24N 29°47' E 122°05'0 0.0
2015-Jan-26 17:18N 29°47' E 122°05'0 0.0
2015-Jan-26 16:24N 29°47' E 122°05'0 0.0
2015-Jan-26 15:30N 29°47' E 122°05'0 0.0
2015-Jan-26 14:24N 29°47' E 122°05'0 0.0
2015-Jan-26 13:24N 29°47' E 122°05'0 0.0
2015-Jan-26 12:24N 29°47' E 122°05'0 0.0
2015-Jan-26 11:30N 29°47' E 122°05'0 0.0
2015-Jan-26 10:18N 29°47' E 122°05'0 0.3
2015-Jan-26 09:33N 29°47' E 122°05'1 1.0
2015-Jan-26 08:33N 29°48' E 122°06'0 0.1
2015-Jan-26 06:16N 29°48' E 122°06'3 4.2
2015-Jan-26 05:33N 29°50' E 122°09'10 9.9
2015-Jan-26 04:33N 29°45' E 122°19'4 3.7
2015-Jan-26 03:33N 29°46' E 122°23'0 0.0
2015-Jan-26 00:21N 29°46' E 122°23'0 0.1
2015-Jan-25 23:27N 29°46' E 122°23'0 0.0
2015-Jan-25 22:27N 29°46' E 122°23'0 0.0
2015-Jan-25 20:15N 29°46' E 122°23'0 0.1
2015-Jan-25 18:27N 29°46' E 122°23'0 0.1
2015-Jan-25 17:27N 29°46' E 122°23'1 1.6
2015-Jan-25 16:33N 29°45' E 122°23'1111.0
2015-Jan-25 15:33N 29°48' E 122°36'12 1.7
2015-Jan-25 08:31N 29°53' E 122°48'2 0.3
2015-Jan-25 00:32N 29°52' E 122°50'69 3.6
2015-Jan-24 05:28N 30°59' E 122°32'1212.4
2015-Jan-24 04:28N 31°02' E 122°18'910.3
2015-Jan-24 03:33N 31°03' E 122°07'1110.9
2015-Jan-24 02:33N 31°07' E 121°55'1514.6
2015-Jan-24 01:33N 31°18' E 121°43'1211.9
2015-Jan-24 00:33N 31°25' E 121°32'1111.0
2015-Jan-23 23:33N 31°32' E 121°22'4 3.3
2015-Jan-23 22:29N 31°35' E 121°20'0 0.1
2015-Jan-23 21:31N 31°35' E 121°20'0 0.0
2015-Jan-23 20:31N 31°35' E 121°20'0 0.0
2015-Jan-23 19:32N 31°35' E 121°20'0 0.0
2015-Jan-23 18:32N 31°35' E 121°20'0 0.0
2015-Jan-23 17:31N 31°35' E 121°20'0 0.3
2015-Jan-23 16:32N 31°35' E 121°20'7 7.2
2015-Jan-23 15:33N 31°39' E 121°14'1414.1
2015-Jan-23 14:33N 31°47' E 120°60'1211.7
2015-Jan-23 13:34N 31°56' E 120°52'1111.2
2015-Jan-23 12:33N 31°60' E 120°39'1212.0
2015-Jan-23 11:33N 32°03' E 120°26'1111.1
2015-Jan-23 10:33N 31°56' E 120°15'1010.0
2015-Jan-23 09:33N 31°57' E 120°04'1312.5
2015-Jan-23 08:33N 32°07' E 119°54'1413.3
2015-Jan-23 07:31N 32°19' E 119°47'14 0.3
2015-Jan-21 11:03N 32°07' E 119°55'611.6
2015-Jan-21 10:32N 32°01' E 119°57'5 4.5
2015-Jan-21 09:26N 31°58' E 120°01'0 0.0
2015-Jan-21 08:26N 31°58' E 120°01'0 0.0
2015-Jan-21 06:26N 31°58' E 120°01'0 0.0
2015-Jan-21 05:26N 31°58' E 120°01'0 0.0
2015-Jan-21 04:32N 31°58' E 120°01'0 0.0
2015-Jan-21 03:32N 31°58' E 120°01'0 0.0
2015-Jan-21 02:32N 31°58' E 120°01'0 0.0
2015-Jan-21 01:26N 31°58' E 120°01'0 0.0
2015-Jan-21 00:26N 31°58' E 120°01'0 0.0
2015-Jan-20 23:14N 31°58' E 120°01'0 0.0
2015-Jan-20 22:26N 31°58' E 120°01'0 0.0
2015-Jan-20 21:32N 31°58' E 120°01'0 0.0
2015-Jan-20 20:32N 31°58' E 120°01'0 0.0
2015-Jan-20 19:32N 31°58' E 120°01'0 0.0
2015-Jan-20 18:32N 31°58' E 120°01'0 0.0
2015-Jan-20 17:26N 31°58' E 120°01'0 0.0
2015-Jan-20 16:32N 31°58' E 120°01'0 0.0
2015-Jan-20 15:32N 31°58' E 120°01'0 0.0
2015-Jan-20 14:32N 31°58' E 120°01'0 0.0
2015-Jan-20 13:32N 31°58' E 120°01'2 1.6
2015-Jan-20 12:33N 31°58' E 120°03'3 2.8
2015-Jan-20 11:20N 31°56' E 120°07'0 0.0
2015-Jan-20 10:29N 31°56' E 120°07'0 0.0
2015-Jan-20 09:29N 31°56' E 120°07'0 0.0
2015-Jan-20 08:17N 31°56' E 120°07'0 0.0
2015-Jan-20 07:29N 31°56' E 120°07'0 0.0
2015-Jan-20 06:29N 31°56' E 120°07'0 0.0
2015-Jan-20 05:23N 31°56' E 120°07'0 0.0
2015-Jan-20 04:24N 31°56' E 120°07'0 0.0
2015-Jan-20 03:31N 31°56' E 120°07'0 0.0
2015-Jan-20 02:32N 31°56' E 120°07'0 0.0
2015-Jan-20 01:30N 31°56' E 120°07'0 0.0
2015-Jan-20 00:29N 31°56' E 120°07'0 0.0
2015-Jan-19 23:23N 31°56' E 120°07'0 0.0
2015-Jan-19 22:29N 31°56' E 120°07'0 0.0
2015-Jan-19 21:32N 31°56' E 120°07'0 0.0
2015-Jan-19 20:29N 31°56' E 120°07'0 0.0
2015-Jan-19 19:14N 31°56' E 120°07'0 0.0
2015-Jan-19 18:32N 31°56' E 120°07'0 0.0
2015-Jan-19 17:29N 31°56' E 120°07'0 0.0
2015-Jan-19 16:29N 31°56' E 120°07'0 0.0
2015-Jan-19 15:29N 31°56' E 120°07'0 0.0
2015-Jan-19 14:29N 31°56' E 120°07'1 0.3
2015-Jan-19 12:24N 31°56' E 120°06'0 0.0
2015-Jan-19 11:31N 31°56' E 120°06'0 0.0
2015-Jan-19 09:18N 31°56' E 120°06'0 0.0
2015-Jan-19 07:30N 31°56' E 120°06'0 0.0
2015-Jan-19 06:19N 31°56' E 120°06'0 0.0
2015-Jan-19 05:24N 31°56' E 120°06'0 0.0
2015-Jan-19 04:06N 31°56' E 120°06'0 0.0
2015-Jan-19 03:31N 31°56' E 120°06'0 0.0
2015-Jan-19 02:30N 31°56' E 120°06'1 1.1
2015-Jan-19 01:34N 31°57' E 120°07'1 0.7
2015-Jan-19 00:33N 31°57' E 120°08'0 0.0
2015-Jan-18 23:33N 31°57' E 120°08'0 0.0
2015-Jan-18 22:30N 31°57' E 120°08'0 0.0
2015-Jan-18 21:33N 31°57' E 120°08'0 0.2
2015-Jan-18 20:33N 31°57' E 120°08'0 0.1
2015-Jan-18 19:33N 31°57' E 120°08'0 0.1
2015-Jan-18 18:33N 31°57' E 120°08'0 0.2
2015-Jan-18 17:33N 31°57' E 120°08'0 0.0
2015-Jan-18 16:33N 31°57' E 120°08'0 0.0
2015-Jan-18 15:33N 31°57' E 120°08'0 0.1
2015-Jan-18 14:33N 31°57' E 120°08'8 7.7
2015-Jan-18 13:33N 31°57' E 120°17'9 8.7
2015-Jan-18 12:33N 31°59' E 120°27'7 7.4
2015-Jan-18 11:33N 32°00' E 120°36'1010.2
2015-Jan-18 10:33N 32°01' E 120°48'1111.0
2015-Jan-18 09:33N 31°51' E 120°54'1211.6
2015-Jan-18 08:33N 31°45' E 121°06'1111.0
2015-Jan-18 07:33N 31°38' E 121°16'1212.2
2015-Jan-18 06:33N 31°30' E 121°26'10 9.5
2015-Jan-18 05:33N 31°24' E 121°35'1111.1
2015-Jan-18 04:33N 31°18' E 121°46'1010.5
2015-Jan-18 03:33N 31°15' E 121°58'1110.9
2015-Jan-18 02:33N 31°11' E 122°10'1111.4
2015-Jan-18 01:33N 31°06' E 122°22'10 0.6
2015-Jan-17 08:08N 31°04' E 122°33'  

Dump ship's entire track history